Temp: 17.4°C   Baro: 1015.3mb
  Wind: 15.0mph   Dir: WNW (283°)
  Rain: 9.6mm (0.0mm/hr)
  Solar: 773W/m2  Hum: 68%
 
Bath Spa Weather Historical Data
Daily Summary for July 21, 2019 Units:  Metric    English   Both
Next Day »
Daily Weekly Monthly Yearly Custom
  High: Low: Average:
Temperature: 21.7 °C 12.4 °C 17.1 °C
Dew Point: 15.2 °C 10.6 °C 13.3 °C
Humidity: 92% 64% 79%
Wind Speed: 27.4km/h 0.0km/h 6.1km/h
Wind Gust: 29.0km/h - -
Wind direction- - SW
Pressure: 1020.9 hPa 1016.1 hPa -
Precipitation: 0.0 mm    
Historical Graphs
 
 
Tabular Data for July 21, 2019
Time Temperature Dew Point Pressure Wind direction Wind Speed Wind Gust Humidity Rainfall Rate (Hourly) solar
00:04 13.8 °C 11.3 °C 1016.1 hPa Calm     85% 0.0 mm 0.00 W/m2
00:09 13.8 °C 11.3 °C 1016.5 hPa Calm   1.6 km/h 85% 0.0 mm 0.00 W/m2
00:14 13.8 °C 11.3 °C 1016.5 hPa Calm   1.6 km/h 85% 0.0 mm 0.00 W/m2
00:19 13.7 °C 11.2 °C 1016.5 hPa West 1.4 km/h 4.8 km/h 85% 0.0 mm 0.00 W/m2
00:24 13.7 °C 11.4 °C 1016.5 hPa West 3.2 km/h 4.8 km/h 86% 0.0 mm 0.00 W/m2
00:29 13.7 °C 11.4 °C 1016.5 hPa Calm   4.8 km/h 86% 0.0 mm 0.00 W/m2
00:34 13.7 °C 11.4 °C 1016.5 hPa WNW 4.7 km/h 8.0 km/h 86% 0.0 mm 0.00 W/m2
00:39 13.7 °C 11.6 °C 1016.8 hPa WNW 4.7 km/h 6.4 km/h 87% 0.0 mm 0.00 W/m2
00:44 13.7 °C 11.6 °C 1016.8 hPa WNW 1.4 km/h 4.8 km/h 87% 0.0 mm 0.00 W/m2
00:49 13.6 °C 11.5 °C 1016.5 hPa Calm   1.6 km/h 87% 0.0 mm 0.00 W/m2
00:54 13.6 °C 11.5 °C 1016.5 hPa WNW 1.4 km/h 3.2 km/h 87% 0.0 mm 0.00 W/m2
00:59 13.7 °C 11.6 °C 1016.5 hPa WNW 4.7 km/h 4.8 km/h 87% 0.0 mm 0.00 W/m2
01:04 13.6 °C 11.5 °C 1016.8 hPa WNW 1.4 km/h 3.2 km/h 87% 0.0 mm 0.00 W/m2
01:09 13.5 °C 11.4 °C 1016.8 hPa Calm     87% 0.0 mm 0.00 W/m2
01:14 13.5 °C 11.4 °C 1016.8 hPa Calm     87% 0.0 mm 0.00 W/m2
01:19 13.5 °C 11.4 °C 1016.8 hPa Calm     87% 0.0 mm 0.00 W/m2
01:24 13.4 °C 11.3 °C 1016.8 hPa Calm     87% 0.0 mm 0.00 W/m2
01:29 13.3 °C 11.2 °C 1016.8 hPa WNW 1.6 km/h 1.6 km/h 87% 0.0 mm 0.00 W/m2
01:34 13.2 °C 11.3 °C 1016.8 hPa WNW 3.2 km/h 3.2 km/h 88% 0.0 mm 0.00 W/m2
01:39 13.2 °C 11.3 °C 1017.2 hPa Calm   1.6 km/h 88% 0.0 mm 0.00 W/m2
01:44 13.2 °C 11.3 °C 1016.8 hPa Calm   3.2 km/h 88% 0.0 mm 0.00 W/m2
01:49 13.0 °C 11.1 °C 1016.8 hPa Calm   1.6 km/h 88% 0.0 mm 0.00 W/m2
01:54 13.0 °C 11.1 °C 1016.8 hPa Calm     88% 0.0 mm 0.00 W/m2
01:59 12.9 °C 11.1 °C 1017.2 hPa Calm     89% 0.0 mm 0.00 W/m2
02:04 12.8 °C 11.0 °C 1017.2 hPa Calm     89% 0.0 mm 0.00 W/m2
02:09 12.8 °C 11.0 °C 1017.2 hPa Calm     89% 0.0 mm 0.00 W/m2
02:14 12.7 °C 10.9 °C 1017.2 hPa Calm     89% 0.0 mm 0.00 W/m2
02:19 12.6 °C 10.8 °C 1017.2 hPa Calm     89% 0.0 mm 0.00 W/m2
02:24 12.5 °C 10.7 °C 1017.2 hPa Calm     89% 0.0 mm 0.00 W/m2
02:29 12.5 °C 10.7 °C 1017.2 hPa Calm     89% 0.0 mm 0.00 W/m2
02:34 12.5 °C 10.7 °C 1017.2 hPa Calm     89% 0.0 mm 0.00 W/m2
02:39 12.4 °C 10.6 °C 1017.2 hPa Calm     89% 0.0 mm 0.00 W/m2
02:44 12.4 °C 10.8 °C 1017.2 hPa Calm     90% 0.0 mm 0.00 W/m2
02:49 12.4 °C 10.8 °C 1017.2 hPa Calm     90% 0.0 mm 0.00 W/m2
02:54 12.4 °C 10.8 °C 1017.2 hPa Calm     90% 0.0 mm 0.00 W/m2
02:59 12.4 °C 10.8 °C 1017.2 hPa Calm     90% 0.0 mm 0.00 W/m2
03:04 12.4 °C 10.8 °C 1017.2 hPa Calm     90% 0.0 mm 0.00 W/m2
03:09 12.5 °C 10.9 °C 1017.2 hPa Calm     90% 0.0 mm 0.00 W/m2
03:14 12.5 °C 10.9 °C 1017.2 hPa Calm     90% 0.0 mm 0.00 W/m2
03:19 12.5 °C 11.1 °C 1017.2 hPa Calm     91% 0.0 mm 0.00 W/m2
03:24 12.5 °C 11.1 °C 1017.2 hPa Calm     91% 0.0 mm 0.00 W/m2
03:29 12.7 °C 11.3 °C 1017.2 hPa Calm     91% 0.0 mm 0.00 W/m2
03:34 12.8 °C 11.4 °C 1017.2 hPa Calm     91% 0.0 mm 0.00 W/m2
03:39 12.8 °C 11.4 °C 1017.5 hPa Calm   4.8 km/h 91% 0.0 mm 0.00 W/m2
03:44 12.8 °C 11.4 °C 1017.2 hPa Calm   1.6 km/h 91% 0.0 mm 0.00 W/m2
03:49 12.9 °C 11.5 °C 1017.2 hPa Calm     91% 0.0 mm 0.00 W/m2
03:54 12.9 °C 11.5 °C 1017.2 hPa Calm     91% 0.0 mm 0.00 W/m2
03:59 12.8 °C 11.4 °C 1017.5 hPa Calm     91% 0.0 mm 0.00 W/m2
04:04 12.9 °C 11.5 °C 1017.5 hPa Calm     91% 0.0 mm 0.00 W/m2
04:09 12.9 °C 11.5 °C 1017.5 hPa Calm     91% 0.0 mm 0.00 W/m2
04:14 12.9 °C 11.5 °C 1017.5 hPa Calm     91% 0.0 mm 0.00 W/m2
04:19 13.0 °C 11.6 °C 1017.5 hPa Calm     91% 0.0 mm 0.00 W/m2
04:24 13.0 °C 11.6 °C 1017.5 hPa Calm     91% 0.0 mm 0.00 W/m2
04:29 13.1 °C 11.8 °C 1017.5 hPa Calm     92% 0.0 mm 0.00 W/m2
04:34 13.2 °C 11.9 °C 1017.5 hPa Calm     92% 0.0 mm 0.00 W/m2
04:39 13.2 °C 11.9 °C 1017.8 hPa Calm     92% 0.0 mm 0.00 W/m2
04:44 13.3 °C 12.0 °C 1017.5 hPa Calm     92% 0.0 mm 0.00 W/m2
04:49 13.3 °C 12.0 °C 1017.5 hPa Calm     92% 0.0 mm 0.00 W/m2
04:54 13.3 °C 12.0 °C 1017.5 hPa Calm     92% 0.0 mm 0.00 W/m2
04:59 13.3 °C 11.9 °C 1017.8 hPa Calm     91% 0.0 mm 0.00 W/m2
05:04 13.3 °C 11.9 °C 1017.8 hPa Calm     91% 0.0 mm 0.00 W/m2
05:09 13.4 °C 12.0 °C 1017.8 hPa Calm     91% 0.0 mm 0.00 W/m2
05:14 13.3 °C 11.9 °C 1017.8 hPa Calm     91% 0.0 mm 0.00 W/m2
05:19 13.4 °C 12.0 °C 1017.8 hPa Calm     91% 0.0 mm 0.00 W/m2
05:24 13.4 °C 12.0 °C 1017.8 hPa Calm     91% 0.0 mm 5.00 W/m2
05:29 13.4 °C 12.0 °C 1018.2 hPa WNW 1.4 km/h 1.6 km/h 91% 0.0 mm 7.00 W/m2
05:34 13.3 °C 11.9 °C 1018.2 hPa Calm     91% 0.0 mm 11.00 W/m2
05:39 13.3 °C 11.9 °C 1018.2 hPa Calm   6.4 km/h 91% 0.0 mm 12.00 W/m2
05:44 13.4 °C 12.0 °C 1018.2 hPa Calm   1.6 km/h 91% 0.0 mm 14.00 W/m2
05:49 13.4 °C 12.0 °C 1018.2 hPa Calm     91% 0.0 mm 19.00 W/m2
05:54 13.4 °C 12.0 °C 1018.5 hPa Calm     91% 0.0 mm 19.00 W/m2
05:59 13.4 °C 12.0 °C 1018.5 hPa Calm   3.2 km/h 91% 0.0 mm 23.00 W/m2
06:04 13.4 °C 12.0 °C 1018.5 hPa Calm     91% 0.0 mm 30.00 W/m2
06:09 13.5 °C 11.9 °C 1018.5 hPa Calm     90% 0.0 mm 37.00 W/m2
06:14 13.5 °C 11.9 °C 1018.8 hPa Calm     90% 0.0 mm 40.00 W/m2
06:19 13.5 °C 11.9 °C 1018.8 hPa Calm     90% 0.0 mm 42.00 W/m2
06:24 13.7 °C 12.1 °C 1018.8 hPa Calm     90% 0.0 mm 49.00 W/m2
06:29 13.8 °C 12.2 °C 1018.8 hPa Calm   3.2 km/h 90% 0.0 mm 53.00 W/m2
06:34 13.8 °C 12.2 °C 1018.8 hPa Calm   1.6 km/h 90% 0.0 mm 60.00 W/m2
06:39 13.9 °C 12.3 °C 1018.8 hPa Calm   1.6 km/h 90% 0.0 mm 54.00 W/m2
06:44 14.0 °C 12.4 °C 1018.8 hPa Calm     90% 0.0 mm 49.00 W/m2
06:49 14.1 °C 12.5 °C 1018.8 hPa WNW 1.4 km/h 4.8 km/h 90% 0.0 mm 47.00 W/m2
06:54 14.1 °C 12.3 °C 1018.8 hPa Calm   6.4 km/h 89% 0.0 mm 54.00 W/m2
06:59 14.2 °C 12.4 °C 1018.8 hPa Calm   4.8 km/h 89% 0.0 mm 62.00 W/m2
07:04 14.3 °C 12.5 °C 1018.8 hPa WNW 3.2 km/h 4.8 km/h 89% 0.0 mm 70.00 W/m2
07:09 14.3 °C 12.5 °C 1018.8 hPa Calm   3.2 km/h 89% 0.0 mm 79.00 W/m2
07:14 14.4 °C 12.6 °C 1019.2 hPa Calm   6.4 km/h 89% 0.0 mm 81.00 W/m2
07:19 14.4 °C 12.6 °C 1019.2 hPa WNW 3.2 km/h 4.8 km/h 89% 0.0 mm 95.00 W/m2
07:24 14.5 °C 12.5 °C 1018.8 hPa West 3.2 km/h 8.0 km/h 88% 0.0 mm 120.00 W/m2
07:29 14.6 °C 12.6 °C 1018.8 hPa Calm   4.8 km/h 88% 0.0 mm 167.00 W/m2
07:34 14.7 °C 12.7 °C 1018.8 hPa West 3.2 km/h 4.8 km/h 88% 0.0 mm 148.00 W/m2
07:39 14.8 °C 12.8 °C 1018.8 hPa Calm   3.2 km/h 88% 0.0 mm 171.00 W/m2
07:44 14.9 °C 12.9 °C 1018.8 hPa West 1.4 km/h 1.6 km/h 88% 0.0 mm 193.00 W/m2
07:49 15.1 °C 13.1 °C 1018.8 hPa WSW 7.9 km/h 8.0 km/h 88% 0.0 mm 211.00 W/m2
07:54 15.2 °C 13.0 °C 1019.2 hPa WSW 3.2 km/h 12.9 km/h 87% 0.0 mm 243.00 W/m2
07:59 15.4 °C 13.2 °C 1019.2 hPa SW 6.4 km/h 11.3 km/h 87% 0.0 mm 262.00 W/m2
08:04 15.7 °C 13.4 °C 1019.2 hPa WSW 4.7 km/h 11.3 km/h 86% 0.0 mm 281.00 W/m2
08:09 15.9 °C 13.6 °C 1019.2 hPa SW 7.9 km/h 11.3 km/h 86% 0.0 mm 308.00 W/m2
08:14 15.8 °C 13.1 °C 1019.2 hPa SSW 6.4 km/h 9.7 km/h 84% 0.0 mm 338.00 W/m2
08:19 16.0 °C 13.3 °C 1019.5 hPa SW 6.4 km/h 11.3 km/h 84% 0.0 mm 336.00 W/m2
08:24 16.3 °C 13.6 °C 1019.5 hPa SW 7.9 km/h 9.7 km/h 84% 0.0 mm 230.00 W/m2
08:29 16.5 °C 13.6 °C 1019.5 hPa Calm   1.6 km/h 83% 0.0 mm 239.00 W/m2
08:34 16.7 °C 13.6 °C 1019.5 hPa SW 4.7 km/h 9.7 km/h 82% 0.0 mm 246.00 W/m2
08:39 16.9 °C 13.6 °C 1019.5 hPa SW 1.4 km/h 8.0 km/h 81% 0.0 mm 313.00 W/m2
08:44 17.0 °C 13.5 °C 1019.5 hPa SW 9.7 km/h 9.7 km/h 80% 0.0 mm 475.00 W/m2
08:49 17.1 °C 13.6 °C 1019.5 hPa West 1.4 km/h 14.5 km/h 80% 0.0 mm 271.00 W/m2
08:54 17.3 °C 13.6 °C 1019.5 hPa SW 11.1 km/h 12.9 km/h 79% 0.0 mm 278.00 W/m2
08:59 17.1 °C 13.2 °C 1019.5 hPa SW 6.4 km/h 16.1 km/h 78% 0.0 mm 281.00 W/m2
09:04 17.2 °C 13.5 °C 1019.5 hPa WSW 9.7 km/h 20.9 km/h 79% 0.0 mm 297.00 W/m2
09:09 17.2 °C 13.3 °C 1019.5 hPa WSW 14.3 km/h 16.1 km/h 78% 0.0 mm 346.00 W/m2
09:14 17.2 °C 13.3 °C 1019.5 hPa SW 4.7 km/h 12.9 km/h 78% 0.0 mm 295.00 W/m2
09:19 17.4 °C 13.5 °C 1019.5 hPa West 6.4 km/h 9.7 km/h 78% 0.0 mm 255.00 W/m2
09:24 17.5 °C 13.4 °C 1019.5 hPa SW 9.7 km/h 14.5 km/h 77% 0.0 mm 267.00 W/m2
09:29 17.5 °C 13.4 °C 1019.5 hPa SW 1.4 km/h 8.0 km/h 77% 0.0 mm 568.00 W/m2
09:34 18.2 °C 13.9 °C 1019.5 hPa WSW 11.1 km/h 12.9 km/h 76% 0.0 mm 575.00 W/m2
09:39 18.1 °C 13.2 °C 1019.5 hPa SW 6.4 km/h 9.7 km/h 73% 0.0 mm 501.00 W/m2
09:44 18.3 °C 13.4 °C 1019.9 hPa SSW 16.1 km/h 16.1 km/h 73% 0.0 mm 359.00 W/m2
09:49 18.2 °C 13.3 °C 1019.9 hPa WSW 13.0 km/h 14.5 km/h 73% 0.0 mm 348.00 W/m2
09:54 18.0 °C 13.1 °C 1019.9 hPa West 4.7 km/h 12.9 km/h 73% 0.0 mm 320.00 W/m2
09:59 18.3 °C 13.6 °C 1019.9 hPa WSW 9.7 km/h 11.3 km/h 74% 0.0 mm 346.00 W/m2
10:04 18.3 °C 13.2 °C 1019.9 hPa WSW 11.1 km/h 16.1 km/h 72% 0.0 mm 401.00 W/m2
10:09 18.5 °C 12.9 °C 1019.9 hPa West 9.7 km/h 14.5 km/h 70% 0.0 mm 381.00 W/m2
10:14 18.5 °C 12.9 °C 1019.9 hPa WSW 4.7 km/h 14.5 km/h 70% 0.0 mm 432.00 W/m2
10:19 18.8 °C 13.4 °C 1019.9 hPa SW 6.4 km/h 12.9 km/h 71% 0.0 mm 397.00 W/m2
10:24 18.7 °C 13.3 °C 1019.9 hPa SSW 3.2 km/h 14.5 km/h 71% 0.0 mm 371.00 W/m2
10:29 18.5 °C 12.9 °C 1019.9 hPa WSW 7.9 km/h 11.3 km/h 70% 0.0 mm 413.00 W/m2
10:34 18.7 °C 13.1 °C 1019.9 hPa SW 1.4 km/h 14.5 km/h 70% 0.0 mm 418.00 W/m2
10:39 18.6 °C 12.8 °C 1019.9 hPa SW 14.3 km/h 17.7 km/h 69% 0.0 mm 424.00 W/m2
10:44 18.5 °C 12.7 °C 1020.2 hPa West 9.7 km/h 16.1 km/h 69% 0.0 mm 462.00 W/m2
10:49 18.9 °C 13.1 °C 1020.2 hPa SW 9.7 km/h 14.5 km/h 69% 0.0 mm 446.00 W/m2
10:54 18.8 °C 12.8 °C 1020.2 hPa SW 19.5 km/h 19.3 km/h 68% 0.0 mm 520.00 W/m2
10:59 18.8 °C 12.8 °C 1020.2 hPa WSW 6.4 km/h 14.5 km/h 68% 0.0 mm 536.00 W/m2
11:04 18.8 °C 12.8 °C 1020.2 hPa SW 17.7 km/h 17.7 km/h 68% 0.0 mm 415.00 W/m2
11:09 18.9 °C 12.6 °C 1020.5 hPa SW 6.4 km/h 16.1 km/h 67% 0.0 mm 454.00 W/m2
11:14 19.2 °C 12.9 °C 1020.2 hPa South 4.7 km/h 12.9 km/h 67% 0.0 mm 552.00 W/m2
11:19 19.5 °C 12.7 °C 1020.5 hPa SW 13.0 km/h 14.5 km/h 65% 0.0 mm 427.00 W/m2
11:24 19.2 °C 12.7 °C 1020.5 hPa SSW 6.4 km/h 9.7 km/h 66% 0.0 mm 330.00 W/m2
11:29 19.2 °C 12.9 °C 1020.5 hPa WSW 4.7 km/h 12.9 km/h 67% 0.0 mm 308.00 W/m2
11:34 19.2 °C 12.9 °C 1020.5 hPa SW 14.3 km/h 19.3 km/h 67% 0.0 mm 311.00 W/m2
11:39 19.3 °C 13.2 °C 1020.9 hPa SW 6.4 km/h 14.5 km/h 68% 0.0 mm 271.00 W/m2
11:44 19.1 °C 13.1 °C 1020.9 hPa WSW 9.7 km/h 14.5 km/h 68% 0.0 mm 250.00 W/m2
11:49 19.0 °C 13.2 °C 1020.5 hPa WSW 7.9 km/h 11.3 km/h 69% 0.0 mm 301.00 W/m2
11:54 19.2 °C 13.1 °C 1020.5 hPa SSW 7.9 km/h 12.9 km/h 68% 0.0 mm 327.00 W/m2
11:59 19.2 °C 12.9 °C 1020.5 hPa SSW 4.7 km/h 11.3 km/h 67% 0.0 mm 367.00 W/m2
12:04 19.3 °C 13.0 °C 1020.5 hPa SSW 13.0 km/h 20.9 km/h 67% 0.0 mm 345.00 W/m2
12:09 19.3 °C 13.2 °C 1020.5 hPa South 11.1 km/h 29.0 km/h 68% 0.0 mm 306.00 W/m2
12:14 18.9 °C 14.0 °C 1020.5 hPa South 9.7 km/h 20.9 km/h 73% 0.0 mm 271.00 W/m2
12:19 18.1 °C 13.6 °C 1020.5 hPa SSW 4.7 km/h 20.9 km/h 75% 0.0 mm 199.00 W/m2
12:24 18.0 °C 13.9 °C 1020.5 hPa South 17.7 km/h 17.7 km/h 77% 0.0 mm 246.00 W/m2
12:29 17.8 °C 13.9 °C 1020.5 hPa SSW 7.9 km/h 16.1 km/h 78% 0.0 mm 216.00 W/m2
12:34 17.8 °C 13.9 °C 1020.5 hPa SW 6.4 km/h 12.9 km/h 78% 0.0 mm 346.00 W/m2
12:39 18.2 °C 14.3 °C 1020.5 hPa SSW 4.7 km/h 11.3 km/h 78% 0.0 mm 427.00 W/m2
12:44 18.7 °C 14.6 °C 1020.5 hPa SSW 4.7 km/h 17.7 km/h 77% 0.0 mm 445.00 W/m2
12:49 19.0 °C 14.5 °C 1020.5 hPa SW 14.3 km/h 14.5 km/h 75% 0.0 mm 399.00 W/m2
12:54 19.2 °C 14.5 °C 1020.2 hPa SW 9.7 km/h 16.1 km/h 74% 0.0 mm 410.00 W/m2
12:59 19.5 °C 14.1 °C 1020.5 hPa SSW 4.7 km/h 20.9 km/h 71% 0.0 mm 295.00 W/m2
13:04 19.4 °C 14.2 °C 1020.5 hPa SW 13.0 km/h 17.7 km/h 72% 0.0 mm 378.00 W/m2
13:09 19.5 °C 14.3 °C 1020.5 hPa WSW 22.5 km/h 22.5 km/h 72% 0.0 mm 512.00 W/m2
13:14 19.8 °C 14.4 °C 1020.5 hPa SSW 7.9 km/h 19.3 km/h 71% 0.0 mm 418.00 W/m2
13:19 19.9 °C 14.0 °C 1020.5 hPa WSW 14.3 km/h 14.5 km/h 69% 0.0 mm 954.00 W/m2
13:24 20.1 °C 14.5 °C 1020.5 hPa WSW 4.7 km/h 14.5 km/h 70% 0.0 mm 464.00 W/m2
13:29 20.3 °C 14.6 °C 1020.5 hPa SSW 7.9 km/h 12.9 km/h 70% 0.0 mm 216.00 W/m2
13:34 20.2 °C 14.3 °C 1020.5 hPa SSW 17.7 km/h 17.7 km/h 69% 0.0 mm 276.00 W/m2
13:39 20.0 °C 14.4 °C 1020.5 hPa WSW 9.7 km/h 20.9 km/h 70% 0.0 mm 318.00 W/m2
13:44 20.0 °C 14.4 °C 1020.5 hPa SW 6.4 km/h 12.9 km/h 70% 0.0 mm 364.00 W/m2
13:49 20.2 °C 14.8 °C 1020.2 hPa SW 7.9 km/h 17.7 km/h 71% 0.0 mm 471.00 W/m2
13:54 20.2 °C 14.8 °C 1020.5 hPa South 11.1 km/h 17.7 km/h 71% 0.0 mm 348.00 W/m2
13:59 19.9 °C 14.5 °C 1020.5 hPa SW 9.7 km/h 17.7 km/h 71% 0.0 mm 315.00 W/m2
14:04 19.9 °C 14.5 °C 1020.5 hPa SW 9.7 km/h 16.1 km/h 71% 0.0 mm 403.00 W/m2
14:09 19.9 °C 14.5 °C 1020.5 hPa SSW 1.4 km/h 17.7 km/h 71% 0.0 mm 504.00 W/m2
14:14 20.0 °C 14.6 °C 1020.5 hPa WSW 11.1 km/h 19.3 km/h 71% 0.0 mm 367.00 W/m2
14:19 20.2 °C 14.8 °C 1020.2 hPa WSW 6.4 km/h 14.5 km/h 71% 0.0 mm 520.00 W/m2
14:24 20.4 °C 14.7 °C 1020.2 hPa SW 9.7 km/h 16.1 km/h 70% 0.0 mm 476.00 W/m2
14:29 20.6 °C 14.7 °C 1020.2 hPa SSW 16.3 km/h 16.1 km/h 69% 0.0 mm 468.00 W/m2
14:34 20.7 °C 14.8 °C 1020.2 hPa SW 9.7 km/h 12.9 km/h 69% 0.0 mm 320.00 W/m2
14:39 20.7 °C 14.6 °C 1020.2 hPa South 14.3 km/h 16.1 km/h 68% 0.0 mm 207.00 W/m2
14:44 20.5 °C 14.4 °C 1020.2 hPa SW 11.1 km/h 17.7 km/h 68% 0.0 mm 107.00 W/m2
14:49 20.4 °C 14.1 °C 1020.5 hPa WSW 22.5 km/h 22.5 km/h 67% 0.0 mm 88.00 W/m2
14:54 20.3 °C 14.0 °C 1020.5 hPa SW 6.4 km/h 19.3 km/h 67% 0.0 mm 58.00 W/m2
14:59 20.3 °C 14.2 °C 1020.5 hPa SSW 11.1 km/h 22.5 km/h 68% 0.0 mm 42.00 W/m2
15:04 20.1 °C 14.2 °C 1020.5 hPa WSW 11.1 km/h 11.3 km/h 69% 0.0 mm 53.00 W/m2
15:09 20.0 °C 14.4 °C 1020.5 hPa WSW 14.3 km/h 14.5 km/h 70% 0.0 mm 76.00 W/m2
15:14 19.9 °C 14.0 °C 1020.5 hPa SW 16.3 km/h 17.7 km/h 69% 0.0 mm 109.00 W/m2
15:19 19.9 °C 14.0 °C 1020.5 hPa SW 11.1 km/h 14.5 km/h 69% 0.0 mm 192.00 W/m2
15:24 20.1 °C 14.5 °C 1020.5 hPa WSW 3.2 km/h 6.4 km/h 70% 0.0 mm 308.00 W/m2
15:29 20.4 °C 14.5 °C 1020.2 hPa SW 7.9 km/h 9.7 km/h 69% 0.0 mm 513.00 W/m2
15:34 20.8 °C 14.7 °C 1020.2 hPa South 3.2 km/h 14.5 km/h 68% 0.0 mm 621.00 W/m2
15:39 20.9 °C 14.5 °C 1020.2 hPa WSW 17.7 km/h 17.7 km/h 67% 0.0 mm 297.00 W/m2
15:44 20.9 °C 14.5 °C 1020.2 hPa SSW 4.7 km/h 14.5 km/h 67% 0.0 mm 162.00 W/m2
15:49 20.7 °C 13.9 °C 1020.2 hPa SSW 7.9 km/h 22.5 km/h 65% 0.0 mm 174.00 W/m2
15:54 20.5 °C 13.9 °C 1020.2 hPa SW 13.0 km/h 16.1 km/h 66% 0.0 mm 192.00 W/m2
15:59 20.5 °C 13.7 °C 1020.2 hPa South 13.0 km/h 19.3 km/h 65% 0.0 mm 195.00 W/m2
16:04 20.5 °C 13.7 °C 1020.2 hPa WSW 16.3 km/h 17.7 km/h 65% 0.0 mm 197.00 W/m2
16:09 20.4 °C 13.6 °C 1020.2 hPa SSW 9.7 km/h 20.9 km/h 65% 0.0 mm 216.00 W/m2
16:14 20.6 °C 13.8 °C 1020.2 hPa SSW 13.0 km/h 25.7 km/h 65% 0.0 mm 485.00 W/m2
16:19 21.0 °C 13.9 °C 1020.2 hPa SSW 11.1 km/h 17.7 km/h 64% 0.0 mm 693.00 W/m2
16:24 21.2 °C 14.8 °C 1020.2 hPa SSW 17.7 km/h 24.1 km/h 67% 0.0 mm 584.00 W/m2
16:29 21.4 °C 15.2 °C 1020.2 hPa SSW 7.9 km/h 19.3 km/h 68% 0.0 mm 633.00 W/m2
16:34 21.4 °C 15.2 °C 1020.2 hPa South 22.5 km/h 22.5 km/h 68% 0.0 mm 348.00 W/m2
16:39 21.3 °C 15.2 °C 1019.9 hPa SW 7.9 km/h 22.5 km/h 68% 0.0 mm 267.00 W/m2
16:44 21.0 °C 14.6 °C 1019.9 hPa SSW 7.9 km/h 20.9 km/h 67% 0.0 mm 274.00 W/m2
16:49 21.2 °C 15.1 °C 1019.9 hPa SW 3.2 km/h 11.3 km/h 68% 0.0 mm 285.00 W/m2
16:54 21.2 °C 15.1 °C 1019.9 hPa SW 13.0 km/h 27.4 km/h 68% 0.0 mm 334.00 W/m2
16:59 21.2 °C 15.1 °C 1019.9 hPa SW 19.5 km/h 22.5 km/h 68% 0.0 mm 373.00 W/m2
17:04 21.2 °C 15.1 °C 1019.5 hPa SW 25.7 km/h 25.7 km/h 68% 0.0 mm 464.00 W/m2
17:09 21.3 °C 15.2 °C 1019.5 hPa South 14.3 km/h 27.4 km/h 68% 0.0 mm 455.00 W/m2
17:14 21.3 °C 15.2 °C 1019.5 hPa SSW 7.9 km/h 20.9 km/h 68% 0.0 mm 594.00 W/m2
17:19 21.4 °C 15.0 °C 1019.9 hPa SW 7.9 km/h 19.3 km/h 67% 0.0 mm 533.00 W/m2
17:24 21.5 °C 14.9 °C 1019.5 hPa SSW 7.9 km/h 22.5 km/h 66% 0.0 mm 526.00 W/m2
17:29 21.6 °C 15.0 °C 1019.5 hPa South 9.7 km/h 16.1 km/h 66% 0.0 mm 504.00 W/m2
17:34 21.7 °C 14.8 °C 1019.5 hPa SSE 7.9 km/h 24.1 km/h 65% 0.0 mm 267.00 W/m2
17:39 21.4 °C 14.5 °C 1019.5 hPa SW 16.3 km/h 25.7 km/h 65% 0.0 mm 489.00 W/m2
17:44 21.3 °C 14.7 °C 1019.5 hPa SSW 9.7 km/h 20.9 km/h 66% 0.0 mm 176.00 W/m2
17:49 21.2 °C 14.6 °C 1019.5 hPa SSW 11.1 km/h 17.7 km/h 66% 0.0 mm 216.00 W/m2
17:54 21.0 °C 14.4 °C 1019.5 hPa SSW 24.1 km/h 24.1 km/h 66% 0.0 mm 178.00 W/m2
17:59 20.9 °C 14.5 °C 1019.9 hPa SW 11.1 km/h 14.5 km/h 67% 0.0 mm 338.00 W/m2
18:04 20.8 °C 14.4 °C 1019.9 hPa SSW 13.0 km/h 29.0 km/h 67% 0.0 mm 221.00 W/m2
18:09 20.7 °C 14.4 °C 1019.5 hPa South 11.1 km/h 22.5 km/h 67% 0.0 mm 311.00 W/m2
18:14 20.9 °C 14.5 °C 1019.9 hPa SW 16.3 km/h 22.5 km/h 67% 0.0 mm 352.00 W/m2
18:19 21.0 °C 14.6 °C 1019.5 hPa South 4.7 km/h 16.1 km/h 67% 0.0 mm 285.00 W/m2
18:23 21.0 °C 14.6 °C 1019.5 hPa SSW 6.4 km/h 22.5 km/h 67% 0.0 mm 269.00 W/m2
18:29 20.9 °C 14.5 °C 1019.9 hPa South 7.9 km/h 14.5 km/h 67% 0.0 mm 251.00 W/m2
18:34 20.7 °C 14.8 °C 1019.9 hPa South 4.7 km/h 16.1 km/h 69% 0.0 mm 241.00 W/m2
18:39 20.5 °C 14.6 °C 1019.9 hPa SW 22.7 km/h 22.5 km/h 69% 0.0 mm 213.00 W/m2
18:44 20.3 °C 14.6 °C 1019.9 hPa SW 4.7 km/h 20.9 km/h 70% 0.0 mm 239.00 W/m2
18:49 20.4 °C 14.7 °C 1019.9 hPa SSW 19.5 km/h 19.3 km/h 70% 0.0 mm 229.00 W/m2
18:54 20.3 °C 14.6 °C 1019.9 hPa West 7.9 km/h 14.5 km/h 70% 0.0 mm 216.00 W/m2
18:57 20.4 °C 14.7 °C 1019.9 hPa SW 27.4 km/h 27.4 km/h 70% 0.0 mm 211.00 W/m2
19:01 20.2 °C 14.6 °C 1019.9 hPa SSW 7.9 km/h 22.5 km/h 70% 0.0 mm 211.00 W/m2
19:09 20.2 °C 14.8 °C 1019.9 hPa SSW 13.0 km/h 16.1 km/h 71% 0.0 mm 190.00 W/m2
19:14 20.0 °C 14.6 °C 1019.9 hPa South 3.2 km/h 22.5 km/h 71% 0.0 mm 139.00 W/m2
19:19 19.9 °C 14.7 °C 1019.9 hPa SW 4.7 km/h 19.3 km/h 72% 0.0 mm 114.00 W/m2
19:24 19.8 °C 14.6 °C 1019.5 hPa SW 6.4 km/h 17.7 km/h 72% 0.0 mm 120.00 W/m2
19:29 19.9 °C 14.7 °C 1019.9 hPa SSW 7.9 km/h 9.7 km/h 72% 0.0 mm 111.00 W/m2
19:34 19.8 °C 14.8 °C 1019.9 hPa Calm   17.7 km/h 73% 0.0 mm 125.00 W/m2
19:39 19.7 °C 14.7 °C 1019.9 hPa SW 13.0 km/h 19.3 km/h 73% 0.0 mm 132.00 W/m2
19:44 19.6 °C 14.6 °C 1019.9 hPa SW 9.7 km/h 16.1 km/h 73% 0.0 mm 135.00 W/m2
19:49 19.5 °C 14.7 °C 1019.9 hPa South 9.7 km/h 19.3 km/h 74% 0.0 mm 111.00 W/m2
19:54 19.4 °C 14.6 °C 1019.9 hPa SW 6.4 km/h 24.1 km/h 74% 0.0 mm 105.00 W/m2
19:58 19.3 °C 14.5 °C 1019.9 hPa SSW 6.4 km/h 19.3 km/h 74% 0.0 mm 98.00 W/m2
20:04 19.2 °C 14.5 °C 1019.9 hPa SW 11.1 km/h 16.1 km/h 74% 0.0 mm 105.00 W/m2
20:09 19.3 °C 14.8 °C 1019.9 hPa WSW 13.0 km/h 14.5 km/h 75% 0.0 mm 102.00 W/m2
20:14 19.2 °C 14.7 °C 1019.9 hPa SW 14.3 km/h 20.9 km/h 75% 0.0 mm 90.00 W/m2
20:19 19.0 °C 14.5 °C 1019.9 hPa SSW 4.7 km/h 14.5 km/h 75% 0.0 mm 72.00 W/m2
20:24 19.0 °C 14.5 °C 1019.9 hPa SSW 9.7 km/h 14.5 km/h 75% 0.0 mm 60.00 W/m2
20:29 18.9 °C 14.4 °C 1019.9 hPa SSW 7.9 km/h 17.7 km/h 75% 0.0 mm 49.00 W/m2
20:34 18.8 °C 14.3 °C 1019.9 hPa SW 1.4 km/h 11.3 km/h 75% 0.0 mm 39.00 W/m2
20:39 18.7 °C 14.4 °C 1020.2 hPa SSW 9.7 km/h 17.7 km/h 76% 0.0 mm 28.00 W/m2
20:43 18.6 °C 14.3 °C 1020.2 hPa WSW 6.4 km/h 17.7 km/h 76% 0.0 mm 21.00 W/m2
20:47 18.5 °C 14.2 °C 1020.2 hPa South 9.7 km/h 12.9 km/h 76% 0.0 mm 18.00 W/m2
20:52 18.3 °C 14.2 °C 1020.2 hPa SW 9.7 km/h 16.1 km/h 77% 0.0 mm 12.00 W/m2
20:57 18.1 °C 14.0 °C 1020.2 hPa WSW 16.3 km/h 20.9 km/h 77% 0.0 mm 11.00 W/m2
21:04 18.0 °C 14.1 °C 1020.2 hPa SSW 7.9 km/h 14.5 km/h 78% 0.0 mm 7.00 W/m2
21:09 17.9 °C 14.0 °C 1020.2 hPa SW 6.4 km/h 16.1 km/h 78% 0.0 mm 0.00 W/m2
21:14 17.8 °C 14.1 °C 1020.2 hPa SSW 7.9 km/h 12.9 km/h 79% 0.0 mm 0.00 W/m2
21:19 17.7 °C 14.0 °C 1020.2 hPa SW 13.0 km/h 19.3 km/h 79% 0.0 mm 0.00 W/m2
21:24 17.6 °C 14.1 °C 1020.2 hPa SSW 6.4 km/h 14.5 km/h 80% 0.0 mm 0.00 W/m2
21:29 17.5 °C 14.0 °C 1020.5 hPa Calm   12.9 km/h 80% 0.0 mm 0.00 W/m2
21:34 17.4 °C 14.1 °C 1020.5 hPa SW 3.2 km/h 17.7 km/h 81% 0.0 mm 0.00 W/m2
21:39 17.3 °C 14.0 °C 1020.5 hPa South 6.4 km/h 12.9 km/h 81% 0.0 mm 0.00 W/m2
21:44 17.2 °C 14.1 °C 1020.5 hPa SW 11.1 km/h 19.3 km/h 82% 0.0 mm 0.00 W/m2
21:49 17.1 °C 14.0 °C 1020.5 hPa SSW 4.7 km/h 16.1 km/h 82% 0.0 mm 0.00 W/m2
21:54 17.0 °C 14.1 °C 1020.5 hPa WSW 7.9 km/h 9.7 km/h 83% 0.0 mm 0.00 W/m2
21:59 16.9 °C 14.0 °C 1020.5 hPa SW 4.7 km/h 6.4 km/h 83% 0.0 mm 0.00 W/m2
22:04 16.9 °C 14.0 °C 1020.5 hPa SW 14.5 km/h 14.5 km/h 83% 0.0 mm 0.00 W/m2
22:09 16.8 °C 14.1 °C 1020.5 hPa SSW 9.7 km/h 11.3 km/h 84% 0.0 mm 0.00 W/m2
22:14 16.8 °C 14.1 °C 1020.5 hPa SW 4.7 km/h 9.7 km/h 84% 0.0 mm 0.00 W/m2
22:19 16.7 °C 14.0 °C 1020.5 hPa SSW 4.7 km/h 14.5 km/h 84% 0.0 mm 0.00 W/m2
22:24 16.7 °C 14.0 °C 1020.5 hPa WSW 6.4 km/h 11.3 km/h 84% 0.0 mm 0.00 W/m2
22:29 16.6 °C 14.1 °C 1020.5 hPa West 1.4 km/h 11.3 km/h 85% 0.0 mm 0.00 W/m2
22:34 16.5 °C 14.0 °C 1020.5 hPa West 1.4 km/h 12.9 km/h 85% 0.0 mm 0.00 W/m2
22:39 16.5 °C 14.0 °C 1020.5 hPa WSW 6.4 km/h 11.3 km/h 85% 0.0 mm 0.00 W/m2
22:44 16.5 °C 14.0 °C 1020.5 hPa WSW 3.2 km/h 9.7 km/h 85% 0.0 mm 0.00 W/m2
22:49 16.5 °C 14.0 °C 1020.5 hPa West 1.4 km/h 8.0 km/h 85% 0.0 mm 0.00 W/m2
22:54 16.4 °C 13.9 °C 1020.5 hPa SSW 6.4 km/h 9.7 km/h 85% 0.0 mm 0.00 W/m2
22:59 16.4 °C 14.1 °C 1020.5 hPa Calm   4.8 km/h 86% 0.0 mm 0.00 W/m2
23:04 16.4 °C 14.1 °C 1020.5 hPa West 4.7 km/h 4.8 km/h 86% 0.0 mm 0.00 W/m2
23:09 16.4 °C 14.1 °C 1020.5 hPa WSW 1.4 km/h 8.0 km/h 86% 0.0 mm 0.00 W/m2
23:14 16.4 °C 14.1 °C 1020.5 hPa WSW 7.9 km/h 8.0 km/h 86% 0.0 mm 0.00 W/m2
23:19 16.4 °C 14.1 °C 1020.5 hPa Calm   6.4 km/h 86% 0.0 mm 0.00 W/m2
23:24 16.4 °C 14.1 °C 1020.5 hPa Calm   6.4 km/h 86% 0.0 mm 0.00 W/m2
23:29 16.4 °C 14.2 °C 1020.5 hPa SSW 9.7 km/h 12.9 km/h 87% 0.0 mm 0.00 W/m2
23:34 16.4 °C 14.2 °C 1020.5 hPa SW 1.4 km/h 6.4 km/h 87% 0.0 mm 0.00 W/m2
23:39 16.3 °C 14.1 °C 1020.5 hPa Calm   9.7 km/h 87% 0.0 mm 0.00 W/m2
23:44 16.3 °C 14.1 °C 1020.5 hPa Calm   6.4 km/h 87% 0.0 mm 0.00 W/m2
23:49 16.3 °C 14.1 °C 1020.5 hPa Calm   4.8 km/h 87% 0.0 mm 0.00 W/m2
23:54 16.4 °C 14.2 °C 1020.5 hPa SW 1.4 km/h 4.8 km/h 87% 0.0 mm 0.00 W/m2
23:59 16.4 °C 14.2 °C 1020.5 hPa Calm   3.2 km/h 87% 0.0 mm 0.00 W/m2